Latest Coastal Weather Observations for Weipa

IDQ60701

Issued at 5:21 pm EST Saturday 23 May 2015 (issued every 10 minutes, with the page automatically refreshed every 10 minutes)

About coastal observations | Map of coastal stations | Coastal observations for QLD | Marine services | Other Formats
Station Details ID: 027045 Name: WEIPA AERO Lat: -12.68 Lon: 141.92 Height: 17.96 m
Data from the previous 72 hours. | See also: Recent months at Weipa
Date/Time
EST
Temp

°C
Wind Pressure Rain
since 9am
mm
Weather Cloud Vis
km
Sea
Height
m
Swell
Dir
 
Speed
knots
Gust
knots
hPa Trend Height
m
Period
s
Dir
23/05:00pm 30.5 E 10 14 1012.6 - 0.0 - Partly cloudy 10 - - - -
23/04:30pm 31.4 E 9 14 1012.4 - 0.0 - Partly cloudy 10 - - - -
23/04:00pm 31.5 E 9 15 1012.3 - 0.0 - - 10 - - - -
23/03:30pm 31.8 E 9 14 1012.2 - 0.0 - Partly cloudy 10 - - - -
23/03:00pm 32.3 E 8 13 1011.9 - 0.0 - Mostly clear 10 - - - -
23/02:30pm 32.3 E 8 14 1012.4 - 0.0 - Partly cloudy 10 - - - -
23/02:00pm 31.8 E 8 13 1012.6 - 0.0 - Partly cloudy 10 - - - -
23/01:30pm 31.7 E 9 12 1012.9 - 0.0 - - 10 - - - -
23/01:00pm 30.4 ESE 11 16 1013.4 - 0.0 - Partly cloudy 10 - - - -
23/12:30pm 30.7 ESE 8 13 1013.9 - 0.0 - Partly cloudy 10 - - - -
23/12:00pm 30.2 E 9 13 1014.1 - 0.0 - Mostly clear 10 - - - -
23/11:30am 29.5 E 11 15 1014.7 - 0.0 - Partly cloudy 10 - - - -
23/11:00am 29.5 E 11 16 1015.1 - 0.0 - Partly cloudy 10 - - - -
23/10:30am 28.6 E 11 17 1015.4 - 0.0 - Partly cloudy 10 - - - -
23/10:00am 27.5 ESE 12 17 1015.7 - 0.0 - - 10 - - - -
23/09:30am 26.7 ESE 10 15 1015.8 - 0.0 - - 10 - - - -
23/09:00am 25.5 ESE 8 11 1015.6 - 0.0 - - 10 - - - -
23/08:30am 24.1 SE 5 7 1015.9 - 0.0 - - 10 - - - -
23/08:00am 22.9 ESE 4 5 1015.6 - 0.0 - - 10 - - - -
23/07:30am 21.7 ESE 3 3 1015.4 - 0.0 - - 10 - - - -
23/07:00am 20.9 SE 2 4 1015.1 - 0.0 - - 10 - - - -
23/06:30am 20.6 SSE 2 3 1014.9 - 0.0 - Partly cloudy 10 - - - -
23/06:00am 20.6 ESE 2 3 1014.4 - 0.0 - - 10 - - - -
23/05:30am 20.8 ESE 3 3 1014.4 - 0.0 - - 10 - - - -
23/05:00am 20.6 SSE 1 2 1014.4 - 0.0 - - 10 - - - -
23/04:30am 20.5 S 2 2 1014.5 - 0.0 - - 10 - - - -
23/04:00am 20.7 SSE 1 1 1014.3 - 0.0 - - 10 - - - -
23/03:30am 20.9 CALM 0 1 1014.3 - 0.0 - - 10 - - - -
23/03:00am 20.9 CALM 0 0 1014.1 - 0.0 - - 10 - - - -
23/02:30am 21.1 ENE 1 1 1014.5 - 0.0 - - 10 - - - -
23/02:00am 21.7 CALM 0 1 1015.0 - 0.0 - - 10 - - - -
23/01:30am 21.9 SW 3 4 1015.0 - 0.0 - - 10 - - - -
23/01:00am 22.2 CALM 0 1 1015.0 - 0.0 - - 10 - - - -
23/12:30am 23.0 ESE 2 3 1015.1 - 0.0 - - 10 - - - -
23/12:00am 23.9 E 4 6 1015.0 - 0.0 - - 10 - - - -
 
Date/Time
EST
Temp

°C
Wind Pressure Rain
since 9am
mm
Weather Cloud Vis
km
Sea
Height
m
Swell
Dir
 
Speed
knots
Gust
knots
hPa Trend Height
m
Period
s
Dir
22/11:30pm 24.0 ESE 3 4 1015.4 - 0.0 - - 10 - - - -
22/11:00pm 24.2 SE 3 4 1015.4 - 0.0 - - 10 - - - -
22/10:30pm 24.4 ESE 3 5 1015.3 - 0.0 - - 10 - - - -
22/10:00pm 24.8 SE 3 4 1015.3 - 0.0 - - 10 - - - -
22/09:30pm 25.3 SSE 4 5 1015.3 - 0.0 - Partly cloudy 10 - - - -
22/09:00pm 25.7 SE 3 5 1015.0 - 0.0 - Cloudy 10 - - - -
22/08:30pm 26.0 SE 3 5 1014.9 - 0.0 - Partly cloudy 10 - - - -
22/08:00pm 25.8 S 5 9 1014.5 - 0.0 - Partly cloudy 10 - - - -
22/07:30pm 26.6 SSE 3 6 1014.0 - 0.0 - Partly cloudy 10 - - - -
22/07:00pm 26.7 SSW 2 7 1013.6 - 0.0 - Partly cloudy 10 - - - -
22/06:30pm 26.8 WSW 3 7 1013.2 - 0.0 - Partly cloudy 10 - - - -
22/06:00pm 27.4 WSW 6 9 1012.6 - 0.0 - Mostly clear 10 - - - -
22/05:30pm 28.4 W 5 9 1012.6 - 0.0 - Partly cloudy 8 - - - -
22/05:00pm 29.4 WSW 6 10 1012.3 - 0.0 - Partly cloudy 10 - - - -
22/04:30pm 29.9 W 6 10 1012.1 - 0.0 - Partly cloudy 10 - - - -
22/04:00pm 32.5 SSE 7 10 1012.0 - 0.0 - - 10 - - - -
22/03:30pm 32.8 SE 7 11 1012.0 - 0.0 - Partly cloudy 10 - - - -
22/03:00pm 32.3 ESE 7 11 1012.0 - 0.0 Fine Partly cloudy 10 - - - -
22/02:30pm 32.7 SE 8 13 1012.3 - 0.0 - Partly cloudy 10 - - - -
22/02:00pm 32.2 SE 7 11 1012.6 - 0.0 - - 10 - - - -
22/01:30pm 31.7 SSE 7 12 1013.0 - 0.0 - - 10 - - - -
22/01:00pm 31.5 SE 8 13 1013.5 - 0.0 - - 10 - - - -
22/12:30pm 31.4 SE 6 10 1013.9 - 0.0 - - 10 - - - -
22/12:00pm 30.5 SSE 7 11 1014.3 - 0.0 - - 10 - - - -
22/11:30am 29.5 SSE 6 11 1015.1 - 0.0 - - 10 - - - -
22/11:00am 29.3 SE 6 11 1015.4 - 0.0 - - 10 - - - -
22/10:30am 28.2 SE 7 12 1015.9 - 0.0 - - 10 - - - -
22/10:00am 27.4 E 9 12 1016.1 - 0.0 - - 10 - - - -
22/09:30am 27.1 ESE 9 11 1016.2 - 0.0 - - 10 - - - -
22/09:00am 25.9 ESE 7 10 1016.2 - 0.0 - - 10 - - - -
22/08:30am 24.6 ESE 6 8 1016.3 - 0.0 - - 10 - - - -
22/08:00am 23.3 ESE 3 5 1016.3 - 0.0 - - 10 - - - -
22/07:30am 21.9 SE 2 3 1016.1 - 0.0 - - 10 - - - -
22/07:00am 21.1 SE 2 3 1016.0 - 0.0 - - 10 - - - -
22/06:30am 20.9 ESE 2 3 1015.7 - 0.0 - - 10 - - - -
22/06:00am 21.1 ESE 3 3 1015.1 - 0.0 - - 10 - - - -
22/05:30am 21.3 ESE 2 2 1015.1 - 0.0 - - 10 - - - -
22/05:00am 21.2 ESE 3 3 1014.8 - 0.0 - - 10 - - - -
22/04:30am 21.6 ESE 2 3 1014.6 - 0.0 - - 10 - - - -
22/04:00am 21.2 ESE 2 2 1014.8 - 0.0 - - 10 - - - -
22/03:30am 21.3 ESE 1 2 1014.8 - 0.0 - - 10 - - - -
22/03:00am 21.7 ESE 3 3 1014.7 - 0.0 - - 10 - - - -
22/02:30am 21.8 ESE 1 2 1015.1 - 0.0 - - 10 - - - -
22/02:00am 22.0 SSE 2 3 1015.1 - 0.0 - - 10 - - - -
22/01:30am 22.5 ESE 1 2 1015.2 - 0.0 - - 10 - - - -
22/01:00am 22.9 CALM 0 1 1015.3 - 0.0 - - 10 - - - -
22/12:30am 23.4 NE 1 2 1015.5 - 0.0 - - 10 - - - -
22/12:00am 24.2 E 3 3 1015.5 - 0.0 - - 10 - - - -
 
Date/Time
EST
Temp

°C
Wind Pressure Rain
since 9am
mm
Weather Cloud Vis
km
Sea
Height
m
Swell
Dir
 
Speed
knots
Gust
knots
hPa Trend Height
m
Period
s
Dir
21/11:30pm 24.4 ENE 1 2 1015.9 - 0.0 - - 10 - - - -
21/11:00pm 25.1 ESE 3 4 1016.0 - 0.0 - Partly cloudy 10 - - - -
21/10:30pm 25.6 SE 4 5 1015.9 - 0.0 - Partly cloudy 10 - - - -
21/10:00pm 25.8 SE 4 6 1015.8 - 0.0 - Partly cloudy 10 - - - -
21/09:30pm 26.2 SSE 5 7 1015.6 - 0.0 - Partly cloudy 10 - - - -
21/09:00pm 26.3 SE 3 5 1015.1 - 0.0 - Cloudy 10 - - - -
21/08:30pm 26.4 S 3 5 1015.1 - 0.0 - Partly cloudy 10 - - - -
21/08:00pm 26.5 S 3 6 1014.6 - 0.0 - Partly cloudy 10 - - - -
21/07:30pm 26.6 SW 3 8 1014.1 - 0.0 - Partly cloudy 10 - - - -
21/07:00pm 26.7 WSW 4 8 1013.7 - 0.0 - Partly cloudy 10 - - - -
21/06:30pm 27.1 WSW 4 9 1013.5 - 0.0 - - 10 - - - -
21/06:00pm 28.2 WSW 4 8 1012.9 - 0.0 - Partly cloudy 10 - - - -
21/05:30pm 29.7 WSW 4 8 1012.7 - 0.0 - Partly cloudy 10 - - - -
21/05:00pm 30.3 WSW 6 10 1012.5 - 0.0 - Partly cloudy 10 - - - -
21/04:30pm 31.4 ESE 5 8 1012.2 - 0.0 - Partly cloudy 10 - - - -
21/04:00pm 32.3 S 5 9 1012.1 - 0.0 - Partly cloudy 10 - - - -
21/03:30pm 32.4 SSE 6 11 1012.3 - 0.0 - - 10 - - - -
21/03:00pm 32.5 SSE 6 12 1012.4 - 0.0 - - 10 - - - -
21/02:30pm 32.3 SE 8 12 1012.8 - 0.0 - - 10 - - - -
21/02:00pm 32.1 SE 7 10 1013.2 - 0.0 - Partly cloudy 10 - - - -
21/01:30pm 31.4 SE 8 12 1013.7 - 0.0 - Partly cloudy 10 - - - -
21/01:00pm 31.3 SE 7 11 1014.1 - 0.0 - Partly cloudy 10 - - - -
21/12:30pm 30.7 ESE 8 14 1014.6 - 0.0 - Partly cloudy 10 - - - -
21/12:00pm 30.5 ESE 8 14 1014.9 - 0.0 - - 10 - - - -
21/11:30am 30.0 ESE 9 14 1015.6 - 0.0 - - 10 - - - -
21/11:00am 29.2 E 10 12 1016.1 - 0.0 - - 10 - - - -
21/10:30am 28.4 ESE 8 13 1016.5 - 0.0 - - 10 - - - -
21/10:00am 27.6 E 9 14 1016.8 - 0.0 - - 10 - - - -
21/09:30am 26.8 E 8 13 1016.9 - 0.0 - - 10 - - - -
21/09:00am 25.7 SE 6 10 1016.6 - 0.0 - - 10 - - - -
21/08:30am 24.5 SE 5 8 1016.5 - 0.0 - - 10 - - - -
21/08:00am 22.9 SE 3 6 1016.3 - 0.0 - - 10 - - - -
21/07:30am 21.7 SE 3 3 1016.2 - 0.0 - - 10 - - - -
21/07:00am 21.0 SE 1 2 1016.0 - 0.0 - - 10 - - - -
21/06:30am 21.1 ESE 3 3 1015.8 - 0.0 - - 10 - - - -
21/06:00am 20.9 SSE 2 3 1015.5 - 0.0 - - 10 - - - -
21/05:30am 20.8 SSE 2 3 1015.4 - 0.0 - - 10 - - - -
21/05:00am 20.9 SE 2 2 1015.3 - 0.0 - - 10 - - - -
21/04:30am 20.8 SE 1 2 1015.2 - 0.0 - - 10 - - - -
21/04:00am 20.7 CALM 0 0 1015.2 - 0.0 - - 10 - - - -
21/03:30am 20.9 CALM 0 0 1015.2 - 0.0 - - 10 - - - -
21/03:00am 21.1 CALM 0 0 1015.1 - 0.0 - - 10 - - - -
21/02:30am 21.4 CALM 0 0 1015.5 - 0.0 - - 10 - - - -
21/02:00am 21.5 CALM 0 1 1015.5 - 0.0 - - 10 - - - -
21/01:30am 21.8 CALM 0 0 1015.7 - 0.0 - - 10 - - - -
21/01:00am 22.2 S 2 2 1015.8 - 0.0 - - 10 - - - -
21/12:30am 23.0 SE 2 3 1015.8 - 0.0 - - 10 - - - -
21/12:00am 23.8 E 2 3 1015.5 - 0.0 - - 10 - - - -
 
Date/Time
EST
Temp

°C
Wind Pressure Rain
since 9am
mm
Weather Cloud Vis
km
Sea
Height
m
Swell
Dir
 
Speed
knots
Gust
knots
hPa Trend Height
m
Period
s
Dir
20/11:30pm 24.1 E 3 5 1015.7 - 0.0 - - 10 - - - -
20/11:00pm 24.6 E 5 9 1015.8 - 0.0 - - 10 - - - -
20/10:30pm 25.0 E 4 6 1015.8 - 0.0 - - 10 - - - -
20/10:00pm 25.5 E 5 7 1015.5 - 0.0 - - 10 - - - -
20/09:30pm 25.9 E 5 7 1015.5 - 0.0 - - 10 - - - -
20/09:00pm 26.4 E 5 10 1015.1 - 0.0 - - 10 - - - -
20/08:30pm 26.8 E 3 5 1014.9 - 0.0 - Partly cloudy 10 - - - -
20/08:00pm 26.7 CALM 0 1 1014.6 - 0.0 - Partly cloudy 10 - - - -
20/07:30pm 27.8 NE 2 4 1014.0 - 0.0 - - 10 - - - -
20/07:00pm 28.6 E 5 7 1013.5 - 0.0 - Partly cloudy 10 - - - -
20/06:30pm 29.2 E 3 5 1013.1 - 0.0 - Partly cloudy 10 - - - -
20/06:00pm 29.7 E 4 5 1012.5 - 0.0 - Mostly clear 10 - - - -
20/05:30pm 30.3 ESE 3 4 1012.5 - 0.0 - - 10 - - - -

Other Formats:

Comma delimited format used in spreadsheet applications
http://www.bom.gov.au/fwo/IDQ60701/IDQ60701.94170.axf

JavaScript Object Notation format (JSON) in row-major order
http://www.bom.gov.au/fwo/IDQ60701/IDQ60701.94170.json